« Back
NWS Peachtree City, Ga » Text Product » CSG Terminal Aerodrome Forecast


Printer-friendly Version
Current Version              Previous Versions:   1  2  3  4  5  6  7  8  9  

Terminal Aerodrome Forecast

396
FTUS42 KFFC 111121
TAFCSG
TAF
KCSG 111121Z 1112/1212 00000KT P6SM SKC
     FM111500 23005KT P6SM SCT050
     FM112200 35005KT P6SM SCT040 BKN100
     FM120200 05004KT P6SM BKN040
     FM121100 07004KT P6SM BKN030=



USA.gov is the U.S. government's official web portal to all federal, state and local government web resources and services.